ΕΜΥ, Εθνική Μετεωρολογική Υπηρεσία - Δελτία Καιρού, Προγνώσεις

ΑΕΡΟΝΑΥΤΙΛΙΑ

GREEK AIRPORTS CODES

LGIR 191120Z 32014KT 9999 FEW025 SCT080 19/14 Q1013 NOSIG =

EUROPEAN AIRPORTS CODES

LFPO 191130Z VRB02KT 9999 FEW045 15/04 Q1020 NOSIG=